Woodruff, Wisconsin
Current Conditions -  °F | °C
As of 6:35 AM on Saturday 20 Dec 2014 (Local Time) from KARV Reporting Station
Haze Haze  
Wind Chill: 24°   Ceiling: 500
Heat Index: 24°   Visibility: 5mi
Dew Point: 22°   Wind: 0mph
Humidity: 93%   Direction: NA
Pressure: 30.17"   Gusts: NA
Location:  45.9°N, 89.7°W
Report Text: KARV 201235Z AUTO 00000KT 5SM BR OVC005 M04/M05 A3017 RMK AO2 T10431053
Loading
Personal Weather Stations






























Interactive Weather Map New forecast layout! Learn more

10-Day Weather Forecast

Advertisements
Track Severe Weather on mobile